sensor_id;sensor_type;location;lat;lon;timestamp;temperature;humidity
24164;DHT22;12319;49.204;8.116;2023-02-01T00:01:11;6.10;99.90
24164;DHT22;12319;49.204;8.116;2023-02-01T00:03:37;6.10;99.90
24164;DHT22;12319;49.204;8.116;2023-02-01T00:06:03;6.10;99.90
24164;DHT22;12319;49.204;8.116;2023-02-01T00:08:29;6.10;99.90
24164;DHT22;12319;49.204;8.116;2023-02-01T00:10:59;6.10;99.90
24164;DHT22;12319;49.204;8.116;2023-02-01T00:13:24;6.20;99.90
24164;DHT22;12319;49.204;8.116;2023-02-01T00:15:50;6.20;99.90
24164;DHT22;12319;49.204;8.116;2023-02-01T00:18:15;6.20;99.90
24164;DHT22;12319;49.204;8.116;2023-02-01T00:20:45;6.20;99.90
24164;DHT22;12319;49.204;8.116;2023-02-01T00:23:12;6.20;99.90
24164;DHT22;12319;49.204;8.116;2023-02-01T00:25:37;6.20;99.90
24164;DHT22;12319;49.204;8.116;2023-02-01T00:28:03;6.20;99.90
24164;DHT22;12319;49.204;8.116;2023-02-01T00:30:28;6.20;99.90
24164;DHT22;12319;49.204;8.116;2023-02-01T00:32:54;6.20;99.90
24164;DHT22;12319;49.204;8.116;2023-02-01T00:35:19;6.20;99.90
24164;DHT22;12319;49.204;8.116;2023-02-01T00:37:45;6.20;99.90
24164;DHT22;12319;49.204;8.116;2023-02-01T00:40:11;6.20;99.90
24164;DHT22;12319;49.204;8.116;2023-02-01T00:42:36;6.20;99.90
24164;DHT22;12319;49.204;8.116;2023-02-01T00:45:02;6.20;99.90
24164;DHT22;12319;49.204;8.116;2023-02-01T00:47:27;6.20;99.90
24164;DHT22;12319;49.204;8.116;2023-02-01T00:49:53;6.20;99.90
24164;DHT22;12319;49.204;8.116;2023-02-01T00:52:19;6.20;99.90
24164;DHT22;12319;49.204;8.116;2023-02-01T00:54:44;6.20;99.90
24164;DHT22;12319;49.204;8.116;2023-02-01T00:57:10;6.20;99.90
24164;DHT22;12319;49.204;8.116;2023-02-01T00:59:35;6.20;99.90
24164;DHT22;12319;49.204;8.116;2023-02-01T01:02:01;6.20;99.90
24164;DHT22;12319;49.204;8.116;2023-02-01T01:04:26;6.30;99.90
24164;DHT22;12319;49.204;8.116;2023-02-01T01:06:52;6.30;99.90
24164;DHT22;12319;49.204;8.116;2023-02-01T01:09:17;6.30;99.90
24164;DHT22;12319;49.204;8.116;2023-02-01T01:11:43;6.30;99.90
24164;DHT22;12319;49.204;8.116;2023-02-01T01:14:09;6.40;99.90
24164;DHT22;12319;49.204;8.116;2023-02-01T01:16:35;6.40;99.90
24164;DHT22;12319;49.204;8.116;2023-02-01T01:19:01;6.40;99.90
24164;DHT22;12319;49.204;8.116;2023-02-01T01:21:27;6.40;99.90
24164;DHT22;12319;49.204;8.116;2023-02-01T01:23:53;6.40;99.90
24164;DHT22;12319;49.204;8.116;2023-02-01T01:26:22;6.40;99.90
24164;DHT22;12319;49.204;8.116;2023-02-01T01:28:48;6.40;99.90
24164;DHT22;12319;49.204;8.116;2023-02-01T01:31:15;6.40;99.90
24164;DHT22;12319;49.204;8.116;2023-02-01T01:33:41;6.40;99.90
24164;DHT22;12319;49.204;8.116;2023-02-01T01:36:10;6.40;99.90
24164;DHT22;12319;49.204;8.116;2023-02-01T01:38:39;6.40;99.90
24164;DHT22;12319;49.204;8.116;2023-02-01T01:41:05;6.40;99.90
24164;DHT22;12319;49.204;8.116;2023-02-01T01:43:58;6.50;99.90
24164;DHT22;12319;49.204;8.116;2023-02-01T01:46:30;6.50;99.90
24164;DHT22;12319;49.204;8.116;2023-02-01T01:51:32;6.50;99.90
24164;DHT22;12319;49.204;8.116;2023-02-01T01:56:32;6.50;99.90
24164;DHT22;12319;49.204;8.116;2023-02-01T01:59:00;6.50;99.90
24164;DHT22;12319;49.204;8.116;2023-02-01T02:01:26;6.50;99.90
24164;DHT22;12319;49.204;8.116;2023-02-01T02:03:53;6.50;99.90
24164;DHT22;12319;49.204;8.116;2023-02-01T02:06:47;6.50;99.90
24164;DHT22;12319;49.204;8.116;2023-02-01T02:09:15;6.50;99.90
24164;DHT22;12319;49.204;8.116;2023-02-01T02:11:41;6.40;99.90
24164;DHT22;12319;49.204;8.116;2023-02-01T02:14:10;6.40;99.90
24164;DHT22;12319;49.204;8.116;2023-02-01T02:17:01;6.40;99.90
24164;DHT22;12319;49.204;8.116;2023-02-01T02:25:23;6.50;99.90
24164;DHT22;12319;49.204;8.116;2023-02-01T02:28:03;6.50;99.90
24164;DHT22;12319;49.204;8.116;2023-02-01T02:36:26;6.70;99.90
24164;DHT22;12319;49.204;8.116;2023-02-01T02:39:06;6.70;99.90
24164;DHT22;12319;49.204;8.116;2023-02-01T02:45:00;6.80;99.90
24164;DHT22;12319;49.204;8.116;2023-02-01T02:50:59;6.80;99.90
24164;DHT22;12319;49.204;8.116;2023-02-01T02:54:01;6.80;99.90
24164;DHT22;12319;49.204;8.116;2023-02-01T02:56:47;6.90;99.90
24164;DHT22;12319;49.204;8.116;2023-02-01T02:59:33;6.90;99.90
24164;DHT22;12319;49.204;8.116;2023-02-01T03:02:20;6.90;99.90
24164;DHT22;12319;49.204;8.116;2023-02-01T03:05:05;6.90;99.90
24164;DHT22;12319;49.204;8.116;2023-02-01T03:07:57;6.90;99.90
24164;DHT22;12319;49.204;8.116;2023-02-01T03:10:40;6.60;99.90
24164;DHT22;12319;49.204;8.116;2023-02-01T03:13:10;7.00;99.90
24164;DHT22;12319;49.204;8.116;2023-02-01T03:15:42;7.00;99.90
24164;DHT22;12319;49.204;8.116;2023-02-01T03:18:51;7.00;99.90
24164;DHT22;12319;49.204;8.116;2023-02-01T03:21:20;7.00;99.90
24164;DHT22;12319;49.204;8.116;2023-02-01T03:23:48;7.00;99.90
24164;DHT22;12319;49.204;8.116;2023-02-01T03:26:17;7.00;99.90
24164;DHT22;12319;49.204;8.116;2023-02-01T03:28:49;7.00;99.90
24164;DHT22;12319;49.204;8.116;2023-02-01T03:31:18;7.00;99.90
24164;DHT22;12319;49.204;8.116;2023-02-01T03:33:44;6.90;99.90
24164;DHT22;12319;49.204;8.116;2023-02-01T03:38:43;7.00;99.90
24164;DHT22;12319;49.204;8.116;2023-02-01T03:41:35;7.00;99.90
24164;DHT22;12319;49.204;8.116;2023-02-01T03:46:44;7.00;99.90
24164;DHT22;12319;49.204;8.116;2023-02-01T03:49:17;7.00;99.90
24164;DHT22;12319;49.204;8.116;2023-02-01T03:51:43;7.00;99.90
24164;DHT22;12319;49.204;8.116;2023-02-01T03:54:12;7.00;99.90
24164;DHT22;12319;49.204;8.116;2023-02-01T03:56:42;7.00;99.90
24164;DHT22;12319;49.204;8.116;2023-02-01T03:59:10;7.00;99.90
24164;DHT22;12319;49.204;8.116;2023-02-01T04:01:36;7.00;99.90
24164;DHT22;12319;49.204;8.116;2023-02-01T04:04:01;7.00;99.90
24164;DHT22;12319;49.204;8.116;2023-02-01T04:06:27;7.00;99.90
24164;DHT22;12319;49.204;8.116;2023-02-01T04:08:53;7.00;99.90
24164;DHT22;12319;49.204;8.116;2023-02-01T04:11:18;7.00;99.90
24164;DHT22;12319;49.204;8.116;2023-02-01T04:13:44;7.00;99.90
24164;DHT22;12319;49.204;8.116;2023-02-01T04:16:10;7.00;99.90
24164;DHT22;12319;49.204;8.116;2023-02-01T04:18:36;7.00;99.90
24164;DHT22;12319;49.204;8.116;2023-02-01T04:21:01;7.00;99.90
24164;DHT22;12319;49.204;8.116;2023-02-01T04:23:28;7.00;99.90
24164;DHT22;12319;49.204;8.116;2023-02-01T04:25:58;7.10;99.90
24164;DHT22;12319;49.204;8.116;2023-02-01T04:28:23;7.00;99.90
24164;DHT22;12319;49.204;8.116;2023-02-01T04:30:49;7.10;99.90
24164;DHT22;12319;49.204;8.116;2023-02-01T04:33:14;7.00;99.90
24164;DHT22;12319;49.204;8.116;2023-02-01T04:35:40;7.00;99.90
24164;DHT22;12319;49.204;8.116;2023-02-01T04:38:06;7.00;99.90
24164;DHT22;12319;49.204;8.116;2023-02-01T04:40:32;6.90;99.90
24164;DHT22;12319;49.204;8.116;2023-02-01T04:42:58;6.90;99.90
24164;DHT22;12319;49.204;8.116;2023-02-01T04:45:23;6.90;99.90
24164;DHT22;12319;49.204;8.116;2023-02-01T04:47:49;6.90;99.90
24164;DHT22;12319;49.204;8.116;2023-02-01T04:50:14;7.00;99.90
24164;DHT22;12319;49.204;8.116;2023-02-01T04:52:40;6.90;99.90
24164;DHT22;12319;49.204;8.116;2023-02-01T04:55:07;7.00;99.90
24164;DHT22;12319;49.204;8.116;2023-02-01T04:57:33;7.00;99.90
24164;DHT22;12319;49.204;8.116;2023-02-01T04:59:58;6.90;99.90
24164;DHT22;12319;49.204;8.116;2023-02-01T05:02:24;6.90;99.90
24164;DHT22;12319;49.204;8.116;2023-02-01T05:04:49;6.90;99.90
24164;DHT22;12319;49.204;8.116;2023-02-01T05:07:16;7.00;99.90
24164;DHT22;12319;49.204;8.116;2023-02-01T05:09:41;7.00;99.90
24164;DHT22;12319;49.204;8.116;2023-02-01T05:12:08;7.00;99.90
24164;DHT22;12319;49.204;8.116;2023-02-01T05:14:53;7.00;99.90
24164;DHT22;12319;49.204;8.116;2023-02-01T05:17:18;7.00;99.90
24164;DHT22;12319;49.204;8.116;2023-02-01T05:19:44;7.00;99.90
24164;DHT22;12319;49.204;8.116;2023-02-01T05:22:10;7.00;99.90
24164;DHT22;12319;49.204;8.116;2023-02-01T05:24:36;7.00;99.90
24164;DHT22;12319;49.204;8.116;2023-02-01T05:27:01;7.00;99.90
24164;DHT22;12319;49.204;8.116;2023-02-01T05:29:27;7.00;99.90
24164;DHT22;12319;49.204;8.116;2023-02-01T05:31:52;7.00;99.90
24164;DHT22;12319;49.204;8.116;2023-02-01T05:34:18;7.10;99.90
24164;DHT22;12319;49.204;8.116;2023-02-01T05:36:44;7.00;99.90
24164;DHT22;12319;49.204;8.116;2023-02-01T05:39:09;7.10;99.90
24164;DHT22;12319;49.204;8.116;2023-02-01T05:41:35;7.10;99.90
24164;DHT22;12319;49.204;8.116;2023-02-01T05:44:01;7.00;99.90
24164;DHT22;12319;49.204;8.116;2023-02-01T05:46:27;7.10;99.90
24164;DHT22;12319;49.204;8.116;2023-02-01T05:48:53;7.10;99.90
24164;DHT22;12319;49.204;8.116;2023-02-01T05:51:19;7.00;99.90
24164;DHT22;12319;49.204;8.116;2023-02-01T05:53:44;7.10;99.90
24164;DHT22;12319;49.204;8.116;2023-02-01T05:56:10;7.00;99.90
24164;DHT22;12319;49.204;8.116;2023-02-01T05:58:35;6.90;99.90
24164;DHT22;12319;49.204;8.116;2023-02-01T06:01:02;7.00;99.90
24164;DHT22;12319;49.204;8.116;2023-02-01T06:03:28;6.90;99.90
24164;DHT22;12319;49.204;8.116;2023-02-01T06:05:54;7.00;99.90
24164;DHT22;12319;49.204;8.116;2023-02-01T06:08:20;7.00;99.90
24164;DHT22;12319;49.204;8.116;2023-02-01T06:10:45;7.00;99.90
24164;DHT22;12319;49.204;8.116;2023-02-01T06:13:11;7.00;99.90
24164;DHT22;12319;49.204;8.116;2023-02-01T06:15:36;7.00;99.90
24164;DHT22;12319;49.204;8.116;2023-02-01T06:18:07;7.00;99.90
24164;DHT22;12319;49.204;8.116;2023-02-01T06:20:33;7.00;99.90
24164;DHT22;12319;49.204;8.116;2023-02-01T06:22:58;7.00;99.90
24164;DHT22;12319;49.204;8.116;2023-02-01T06:25:24;7.00;99.90
24164;DHT22;12319;49.204;8.116;2023-02-01T06:27:49;7.00;99.90
24164;DHT22;12319;49.204;8.116;2023-02-01T06:30:15;6.90;99.90
24164;DHT22;12319;49.204;8.116;2023-02-01T06:32:42;7.00;99.90
24164;DHT22;12319;49.204;8.116;2023-02-01T06:35:09;7.00;99.90
24164;DHT22;12319;49.204;8.116;2023-02-01T06:37:37;7.00;99.90
24164;DHT22;12319;49.204;8.116;2023-02-01T06:40:03;7.10;99.90
24164;DHT22;12319;49.204;8.116;2023-02-01T06:42:29;7.10;99.90
24164;DHT22;12319;49.204;8.116;2023-02-01T06:44:55;7.10;99.90
24164;DHT22;12319;49.204;8.116;2023-02-01T06:47:20;7.10;99.90
24164;DHT22;12319;49.204;8.116;2023-02-01T06:49:45;7.10;99.90
24164;DHT22;12319;49.204;8.116;2023-02-01T06:52:11;7.00;99.90
24164;DHT22;12319;49.204;8.116;2023-02-01T06:54:37;7.00;99.90
24164;DHT22;12319;49.204;8.116;2023-02-01T06:57:03;7.00;99.90
24164;DHT22;12319;49.204;8.116;2023-02-01T06:59:28;7.00;99.90
24164;DHT22;12319;49.204;8.116;2023-02-01T07:01:54;7.00;99.90
24164;DHT22;12319;49.204;8.116;2023-02-01T07:04:19;7.10;99.90
24164;DHT22;12319;49.204;8.116;2023-02-01T07:06:45;7.10;99.90
24164;DHT22;12319;49.204;8.116;2023-02-01T07:09:10;7.10;99.90
24164;DHT22;12319;49.204;8.116;2023-02-01T07:11:37;7.10;99.90
24164;DHT22;12319;49.204;8.116;2023-02-01T07:14:06;7.10;99.90
24164;DHT22;12319;49.204;8.116;2023-02-01T07:16:31;7.10;99.90
24164;DHT22;12319;49.204;8.116;2023-02-01T07:18:57;7.10;99.90
24164;DHT22;12319;49.204;8.116;2023-02-01T07:21:23;7.20;99.90
24164;DHT22;12319;49.204;8.116;2023-02-01T07:23:49;7.20;99.90
24164;DHT22;12319;49.204;8.116;2023-02-01T07:26:14;7.30;99.90
24164;DHT22;12319;49.204;8.116;2023-02-01T07:28:42;7.20;99.90
24164;DHT22;12319;49.204;8.116;2023-02-01T07:31:10;7.20;99.90
24164;DHT22;12319;49.204;8.116;2023-02-01T07:33:36;7.20;99.90
24164;DHT22;12319;49.204;8.116;2023-02-01T07:36:04;7.20;99.90
24164;DHT22;12319;49.204;8.116;2023-02-01T07:38:30;7.20;99.90
24164;DHT22;12319;49.204;8.116;2023-02-01T07:41:05;7.20;99.90
24164;DHT22;12319;49.204;8.116;2023-02-01T07:43:31;7.20;99.90
24164;DHT22;12319;49.204;8.116;2023-02-01T07:45:58;7.30;99.90
24164;DHT22;12319;49.204;8.116;2023-02-01T07:48:25;7.30;99.90
24164;DHT22;12319;49.204;8.116;2023-02-01T07:50:59;7.30;99.90
24164;DHT22;12319;49.204;8.116;2023-02-01T07:53:25;7.30;99.90
24164;DHT22;12319;49.204;8.116;2023-02-01T07:55:50;7.30;99.90
24164;DHT22;12319;49.204;8.116;2023-02-01T07:58:16;7.30;99.90
24164;DHT22;12319;49.204;8.116;2023-02-01T08:00:41;7.30;99.90
24164;DHT22;12319;49.204;8.116;2023-02-01T08:03:25;7.40;99.90
24164;DHT22;12319;49.204;8.116;2023-02-01T08:05:55;7.30;99.90
24164;DHT22;12319;49.204;8.116;2023-02-01T08:08:21;7.30;99.90
24164;DHT22;12319;49.204;8.116;2023-02-01T08:10:46;7.40;99.90
24164;DHT22;12319;49.204;8.116;2023-02-01T08:13:12;7.40;99.90
24164;DHT22;12319;49.204;8.116;2023-02-01T08:15:37;7.40;99.90
24164;DHT22;12319;49.204;8.116;2023-02-01T08:18:03;7.40;99.90
24164;DHT22;12319;49.204;8.116;2023-02-01T08:20:29;7.40;99.90
24164;DHT22;12319;49.204;8.116;2023-02-01T08:22:55;7.40;99.90
24164;DHT22;12319;49.204;8.116;2023-02-01T08:25:21;7.40;99.90
24164;DHT22;12319;49.204;8.116;2023-02-01T08:27:47;7.40;99.90
24164;DHT22;12319;49.204;8.116;2023-02-01T08:30:13;7.40;99.90
24164;DHT22;12319;49.204;8.116;2023-02-01T08:32:39;7.40;99.90
24164;DHT22;12319;49.204;8.116;2023-02-01T08:35:05;7.40;99.90
24164;DHT22;12319;49.204;8.116;2023-02-01T08:37:31;7.40;99.90
24164;DHT22;12319;49.204;8.116;2023-02-01T08:39:56;7.40;99.90
24164;DHT22;12319;49.204;8.116;2023-02-01T08:42:22;7.40;99.90
24164;DHT22;12319;49.204;8.116;2023-02-01T08:45:07;7.40;99.90
24164;DHT22;12319;49.204;8.116;2023-02-01T08:47:35;7.40;99.90
24164;DHT22;12319;49.204;8.116;2023-02-01T08:50:01;7.40;99.90
24164;DHT22;12319;49.204;8.116;2023-02-01T08:52:26;7.40;99.90
24164;DHT22;12319;49.204;8.116;2023-02-01T08:54:52;7.50;99.90
24164;DHT22;12319;49.204;8.116;2023-02-01T08:57:18;7.50;99.90
24164;DHT22;12319;49.204;8.116;2023-02-01T08:59:43;7.50;99.90
24164;DHT22;12319;49.204;8.116;2023-02-01T09:02:13;7.50;99.90
24164;DHT22;12319;49.204;8.116;2023-02-01T09:04:40;7.60;99.90
24164;DHT22;12319;49.204;8.116;2023-02-01T09:07:06;7.60;99.90
24164;DHT22;12319;49.204;8.116;2023-02-01T09:09:31;7.70;99.90
24164;DHT22;12319;49.204;8.116;2023-02-01T09:11:57;7.70;99.90
24164;DHT22;12319;49.204;8.116;2023-02-01T09:14:22;7.80;99.90
24164;DHT22;12319;49.204;8.116;2023-02-01T09:16:48;7.80;99.90
24164;DHT22;12319;49.204;8.116;2023-02-01T09:19:14;7.80;99.90
24164;DHT22;12319;49.204;8.116;2023-02-01T09:21:40;7.90;99.90
24164;DHT22;12319;49.204;8.116;2023-02-01T09:24:06;7.90;99.90
24164;DHT22;12319;49.204;8.116;2023-02-01T09:26:32;8.00;99.90
24164;DHT22;12319;49.204;8.116;2023-02-01T09:28:59;8.00;99.90
24164;DHT22;12319;49.204;8.116;2023-02-01T09:31:25;8.00;99.90
24164;DHT22;12319;49.204;8.116;2023-02-01T09:33:50;8.00;99.90
24164;DHT22;12319;49.204;8.116;2023-02-01T09:36:16;8.10;99.90
24164;DHT22;12319;49.204;8.116;2023-02-01T09:38:41;8.10;99.90
24164;DHT22;12319;49.204;8.116;2023-02-01T09:41:30;8.00;99.90
24164;DHT22;12319;49.204;8.116;2023-02-01T09:44:51;8.00;99.90
24164;DHT22;12319;49.204;8.116;2023-02-01T09:47:21;8.00;99.90
24164;DHT22;12319;49.204;8.116;2023-02-01T09:49:56;8.00;99.90
24164;DHT22;12319;49.204;8.116;2023-02-01T09:52:27;8.00;99.90
24164;DHT22;12319;49.204;8.116;2023-02-01T09:54:58;8.00;99.90
24164;DHT22;12319;49.204;8.116;2023-02-01T10:00:33;7.90;99.90
24164;DHT22;12319;49.204;8.116;2023-02-01T10:02:56;7.90;99.90
24164;DHT22;12319;49.204;8.116;2023-02-01T10:10:50;8.00;99.90
24164;DHT22;12319;49.204;8.116;2023-02-01T10:16:04;8.10;99.90
24164;DHT22;12319;49.204;8.116;2023-02-01T10:18:44;8.10;99.90
24164;DHT22;12319;49.204;8.116;2023-02-01T10:26:54;8.10;99.90
24164;DHT22;12319;49.204;8.116;2023-02-01T10:29:25;8.10;99.90
24164;DHT22;12319;49.204;8.116;2023-02-01T10:31:52;8.00;99.90
24164;DHT22;12319;49.204;8.116;2023-02-01T10:34:21;8.00;99.90
24164;DHT22;12319;49.204;8.116;2023-02-01T10:36:58;8.00;99.90
24164;DHT22;12319;49.204;8.116;2023-02-01T10:39:25;8.00;99.90
24164;DHT22;12319;49.204;8.116;2023-02-01T10:41:50;8.00;99.90
24164;DHT22;12319;49.204;8.116;2023-02-01T10:44:20;8.00;99.90
24164;DHT22;12319;49.204;8.116;2023-02-01T10:46:48;8.00;99.90
24164;DHT22;12319;49.204;8.116;2023-02-01T10:49:45;8.00;99.90
24164;DHT22;12319;49.204;8.116;2023-02-01T10:55:31;8.10;99.90
24164;DHT22;12319;49.204;8.116;2023-02-01T10:57:59;8.10;99.90
24164;DHT22;12319;49.204;8.116;2023-02-01T11:00:25;8.10;99.90
24164;DHT22;12319;49.204;8.116;2023-02-01T11:02:52;8.20;99.90
24164;DHT22;12319;49.204;8.116;2023-02-01T11:05:18;8.20;99.90
24164;DHT22;12319;49.204;8.116;2023-02-01T11:07:49;8.20;99.90
24164;DHT22;12319;49.204;8.116;2023-02-01T11:13:02;8.20;99.90
24164;DHT22;12319;49.204;8.116;2023-02-01T11:15:28;8.30;99.90
24164;DHT22;12319;49.204;8.116;2023-02-01T11:17:54;8.30;99.90
24164;DHT22;12319;49.204;8.116;2023-02-01T11:22:59;8.30;99.90
24164;DHT22;12319;49.204;8.116;2023-02-01T11:25:25;8.40;99.80
24164;DHT22;12319;49.204;8.116;2023-02-01T11:27:53;8.40;99.60
24164;DHT22;12319;49.204;8.116;2023-02-01T11:30:32;8.50;98.90
24164;DHT22;12319;49.204;8.116;2023-02-01T11:33:00;8.40;98.80
24164;DHT22;12319;49.204;8.116;2023-02-01T11:35:28;8.30;98.80
24164;DHT22;12319;49.204;8.116;2023-02-01T11:37:57;8.30;99.00
24164;DHT22;12319;49.204;8.116;2023-02-01T11:40:34;8.30;98.80
24164;DHT22;12319;49.204;8.116;2023-02-01T11:43:23;8.20;98.80
24164;DHT22;12319;49.204;8.116;2023-02-01T11:46:00;8.20;98.70
24164;DHT22;12319;49.204;8.116;2023-02-01T11:48:29;8.20;98.70
24164;DHT22;12319;49.204;8.116;2023-02-01T11:53:36;8.20;98.80
24164;DHT22;12319;49.204;8.116;2023-02-01T11:56:32;8.20;98.40
24164;DHT22;12319;49.204;8.116;2023-02-01T11:59:14;8.20;98.20
24164;DHT22;12319;49.204;8.116;2023-02-01T12:04:59;8.30;97.80
24164;DHT22;12319;49.204;8.116;2023-02-01T12:13:31;8.40;97.90
24164;DHT22;12319;49.204;8.116;2023-02-01T12:19:21;8.40;97.40
24164;DHT22;12319;49.204;8.116;2023-02-01T12:21:52;8.40;97.50
24164;DHT22;12319;49.204;8.116;2023-02-01T12:24:45;8.40;97.20
24164;DHT22;12319;49.204;8.116;2023-02-01T12:39:02;8.40;97.10
24164;DHT22;12319;49.204;8.116;2023-02-01T12:41:34;8.40;96.60
24164;DHT22;12319;49.204;8.116;2023-02-01T12:47:21;8.50;96.40
24164;DHT22;12319;49.204;8.116;2023-02-01T12:52:38;8.60;96.50
24164;DHT22;12319;49.204;8.116;2023-02-01T12:55:32;8.50;96.20
24164;DHT22;12319;49.204;8.116;2023-02-01T12:58:18;8.60;95.40
24164;DHT22;12319;49.204;8.116;2023-02-01T13:01:05;8.60;95.60
24164;DHT22;12319;49.204;8.116;2023-02-01T13:03:54;8.60;95.90
24164;DHT22;12319;49.204;8.116;2023-02-01T13:09:33;8.60;95.10
24164;DHT22;12319;49.204;8.116;2023-02-01T13:12:14;8.60;95.60
24164;DHT22;12319;49.204;8.116;2023-02-01T13:14:57;8.60;95.30
24164;DHT22;12319;49.204;8.116;2023-02-01T13:17:29;8.70;95.40
24164;DHT22;12319;49.204;8.116;2023-02-01T13:20:19;8.70;95.30
24164;DHT22;12319;49.204;8.116;2023-02-01T13:23:03;8.80;95.10
24164;DHT22;12319;49.204;8.116;2023-02-01T13:25:35;8.80;95.60
24164;DHT22;12319;49.204;8.116;2023-02-01T13:28:10;8.80;94.70
24164;DHT22;12319;49.204;8.116;2023-02-01T13:44:22;9.10;94.30
24164;DHT22;12319;49.204;8.116;2023-02-01T13:46:50;9.20;94.40
24164;DHT22;12319;49.204;8.116;2023-02-01T13:49:30;9.20;94.00
24164;DHT22;12319;49.204;8.116;2023-02-01T13:51:58;9.30;94.00
24164;DHT22;12319;49.204;8.116;2023-02-01T13:54:37;9.30;93.60
24164;DHT22;12319;49.204;8.116;2023-02-01T13:57:14;9.30;93.50
24164;DHT22;12319;49.204;8.116;2023-02-01T13:59:52;9.40;93.60
24164;DHT22;12319;49.204;8.116;2023-02-01T14:13:35;9.50;92.60
24164;DHT22;12319;49.204;8.116;2023-02-01T14:21:31;9.50;91.70
24164;DHT22;12319;49.204;8.116;2023-02-01T14:26:54;9.50;91.30
24164;DHT22;12319;49.204;8.116;2023-02-01T14:29:36;9.50;91.90
24164;DHT22;12319;49.204;8.116;2023-02-01T14:32:17;9.40;91.30
24164;DHT22;12319;49.204;8.116;2023-02-01T14:37:25;9.30;90.80
24164;DHT22;12319;49.204;8.116;2023-02-01T14:40:00;9.30;91.00
24164;DHT22;12319;49.204;8.116;2023-02-01T14:47:49;9.20;91.90
24164;DHT22;12319;49.204;8.116;2023-02-01T14:52:50;9.20;92.00
24164;DHT22;12319;49.204;8.116;2023-02-01T14:55:27;9.20;91.80
24164;DHT22;12319;49.204;8.116;2023-02-01T14:57:55;9.20;91.30
24164;DHT22;12319;49.204;8.116;2023-02-01T15:00:27;9.10;91.70
24164;DHT22;12319;49.204;8.116;2023-02-01T15:02:56;9.10;91.70
24164;DHT22;12319;49.204;8.116;2023-02-01T15:05:37;9.10;92.00
24164;DHT22;12319;49.204;8.116;2023-02-01T15:08:17;9.00;91.80
24164;DHT22;12319;49.204;8.116;2023-02-01T15:10:47;9.00;91.80
24164;DHT22;12319;49.204;8.116;2023-02-01T15:13:21;9.00;92.10
24164;DHT22;12319;49.204;8.116;2023-02-01T15:16:01;9.00;92.30
24164;DHT22;12319;49.204;8.116;2023-02-01T15:18:27;8.90;92.20
24164;DHT22;12319;49.204;8.116;2023-02-01T15:20:58;8.90;92.10
24164;DHT22;12319;49.204;8.116;2023-02-01T15:23:24;8.90;92.20
24164;DHT22;12319;49.204;8.116;2023-02-01T15:25:50;8.90;91.80
24164;DHT22;12319;49.204;8.116;2023-02-01T15:28:16;9.00;91.90
24164;DHT22;12319;49.204;8.116;2023-02-01T15:30:58;8.90;92.20
24164;DHT22;12319;49.204;8.116;2023-02-01T15:33:25;8.80;92.10
24164;DHT22;12319;49.204;8.116;2023-02-01T15:36:06;8.80;92.30
24164;DHT22;12319;49.204;8.116;2023-02-01T15:38:38;8.80;92.50
24164;DHT22;12319;49.204;8.116;2023-02-01T15:46:14;8.70;92.30
24164;DHT22;12319;49.204;8.116;2023-02-01T15:48:49;8.70;92.30
24164;DHT22;12319;49.204;8.116;2023-02-01T15:51:21;8.70;92.80
24164;DHT22;12319;49.204;8.116;2023-02-01T15:53:55;8.70;92.50
24164;DHT22;12319;49.204;8.116;2023-02-01T15:56:24;8.70;92.40
24164;DHT22;12319;49.204;8.116;2023-02-01T15:58:53;8.60;92.10
24164;DHT22;12319;49.204;8.116;2023-02-01T16:01:20;8.60;92.50
24164;DHT22;12319;49.204;8.116;2023-02-01T16:03:46;8.60;92.60
24164;DHT22;12319;49.204;8.116;2023-02-01T16:09:17;8.50;92.80
24164;DHT22;12319;49.204;8.116;2023-02-01T16:14:15;8.50;92.90
24164;DHT22;12319;49.204;8.116;2023-02-01T16:16:41;8.40;92.80
24164;DHT22;12319;49.204;8.116;2023-02-01T16:19:06;8.40;92.90
24164;DHT22;12319;49.204;8.116;2023-02-01T16:21:32;8.40;93.30
24164;DHT22;12319;49.204;8.116;2023-02-01T16:23:57;8.30;93.20
24164;DHT22;12319;49.204;8.116;2023-02-01T16:26:24;8.30;93.30
24164;DHT22;12319;49.204;8.116;2023-02-01T16:28:50;8.30;93.30
24164;DHT22;12319;49.204;8.116;2023-02-01T16:31:17;8.30;93.30
24164;DHT22;12319;49.204;8.116;2023-02-01T16:33:50;8.30;93.30
24164;DHT22;12319;49.204;8.116;2023-02-01T16:36:16;8.30;93.40
24164;DHT22;12319;49.204;8.116;2023-02-01T16:38:42;8.30;93.40
24164;DHT22;12319;49.204;8.116;2023-02-01T16:41:13;8.30;93.60
24164;DHT22;12319;49.204;8.116;2023-02-01T16:43:39;8.30;93.40
24164;DHT22;12319;49.204;8.116;2023-02-01T16:46:05;8.30;93.40
24164;DHT22;12319;49.204;8.116;2023-02-01T16:48:36;8.30;93.60
24164;DHT22;12319;49.204;8.116;2023-02-01T16:51:04;8.30;93.30
24164;DHT22;12319;49.204;8.116;2023-02-01T16:53:32;8.30;93.40
24164;DHT22;12319;49.204;8.116;2023-02-01T16:55:58;8.30;93.50
24164;DHT22;12319;49.204;8.116;2023-02-01T16:58:25;8.20;93.30
24164;DHT22;12319;49.204;8.116;2023-02-01T17:00:51;8.20;93.40
24164;DHT22;12319;49.204;8.116;2023-02-01T17:03:17;8.10;93.50
24164;DHT22;12319;49.204;8.116;2023-02-01T17:05:46;8.10;93.40
24164;DHT22;12319;49.204;8.116;2023-02-01T17:08:15;8.10;93.50
24164;DHT22;12319;49.204;8.116;2023-02-01T17:10:43;8.10;93.60
24164;DHT22;12319;49.204;8.116;2023-02-01T17:13:16;8.00;93.60
24164;DHT22;12319;49.204;8.116;2023-02-01T17:18:34;8.00;93.60
24164;DHT22;12319;49.204;8.116;2023-02-01T17:21:01;8.00;93.70
24164;DHT22;12319;49.204;8.116;2023-02-01T17:23:28;7.90;93.70
24164;DHT22;12319;49.204;8.116;2023-02-01T17:25:54;7.90;93.60
24164;DHT22;12319;49.204;8.116;2023-02-01T17:28:20;7.90;93.70
24164;DHT22;12319;49.204;8.116;2023-02-01T17:30:46;7.90;93.80
24164;DHT22;12319;49.204;8.116;2023-02-01T17:33:23;7.90;93.80
24164;DHT22;12319;49.204;8.116;2023-02-01T17:35:50;7.80;93.70
24164;DHT22;12319;49.204;8.116;2023-02-01T17:38:16;7.80;93.60
24164;DHT22;12319;49.204;8.116;2023-02-01T17:40:41;7.80;93.70
24164;DHT22;12319;49.204;8.116;2023-02-01T17:43:25;7.80;93.70
24164;DHT22;12319;49.204;8.116;2023-02-01T17:45:55;7.70;93.60
24164;DHT22;12319;49.204;8.116;2023-02-01T17:48:23;7.80;93.80
24164;DHT22;12319;49.204;8.116;2023-02-01T17:50:49;7.70;93.80
24164;DHT22;12319;49.204;8.116;2023-02-01T17:53:19;7.70;93.80
24164;DHT22;12319;49.204;8.116;2023-02-01T17:55:48;7.70;93.80
24164;DHT22;12319;49.204;8.116;2023-02-01T17:58:14;7.70;93.80
24164;DHT22;12319;49.204;8.116;2023-02-01T18:00:41;7.70;93.90
24164;DHT22;12319;49.204;8.116;2023-02-01T18:03:22;7.70;94.00
24164;DHT22;12319;49.204;8.116;2023-02-01T18:05:51;7.70;94.00
24164;DHT22;12319;49.204;8.116;2023-02-01T18:08:19;7.70;94.10
24164;DHT22;12319;49.204;8.116;2023-02-01T18:10:50;7.70;94.10
24164;DHT22;12319;49.204;8.116;2023-02-01T18:13:16;7.70;94.20
24164;DHT22;12319;49.204;8.116;2023-02-01T18:15:42;7.70;94.30
24164;DHT22;12319;49.204;8.116;2023-02-01T18:18:08;7.70;94.20
24164;DHT22;12319;49.204;8.116;2023-02-01T18:20:34;7.60;94.20
24164;DHT22;12319;49.204;8.116;2023-02-01T18:23:03;7.70;94.40
24164;DHT22;12319;49.204;8.116;2023-02-01T18:25:30;7.70;94.40
24164;DHT22;12319;49.204;8.116;2023-02-01T18:28:01;7.70;94.50